Portada
METAR-TAF:

METAR-TAF

Aeroports :

Suffolk Executive Airport

Suffolk, Virgínia, Estats Units d'Amèrica

latitud: 36-40-56N, longitud: 076-36-07W, altitud: 22 m

Observació

L'informe es va fer fa 13 minuts, a les 13:15 UTC
Vent calma
Temperatura 8°C
Humitat 100%
Pressió 1012 hPa
Visibilitat: 11.3 km
Cel cobert a una alçada de 600 ft

METAR: KSFQ 191315Z AUTO 00000KT 7SM OVC006 08/08 A2987 RMK AO2 T00780078

Hora: 08:28 (13:28 UTC)


TAF: manca

Observacions i pronòstics meteorològics de més de 4000 aeroports (METAR i TAF).

Les estacions disponibles són els punts grocs i vermells al mapa.

Posi el ratolí al punt desitjat per veure el nom de l'estació.

Feu clic per veure les observacions i els pronòstics meteorològics.

Per canviar el mapa: feu clic els botons verds amb una creu de color negre per apropar; al botó verd amb un guió per allunyar la imatge; o en les fletxes verdes per a mapes adjacents.


METAR-TAF: